Pagrindinis puslapis
METAR-TAF:

METAR-TAF

Oro uostai :

Šanchajaus Pudongo tarptautinis oro uostas

Šanchajus-Pudong, Kinija

platuma: 31-07N, ilguma: 121-46E, Aukštis: 4 m

Dabartinis oras

Ataskaita buvo paskelbta 16 minutes, ne 12:00 UTC
Vėjas 6 kt iš Pietų
Temperatūra 24°C
Drėgmė 94%
Slėgis 1005 hPa
Matomumas: 5000 m
rūkana

METAR: ZSPD 041200Z 17003MPS 5000 BR NSC 24/23 Q1005 NOSIG

Laikas: 20:16 (12:16 UTC)

Prognozė

Ataskaita buvo paskelbta 2 valandos ir 49 minutes, ne 09:27 UTC
Prognozė galioja nuo 04 metu 12 UTC su 05 metu 12 UTC
Vėjas 8 kt iš Rytų/Pietryčių
Matomumas: 6000 m
Su prošvaistėmis ne aukštis 1500 ft
Tapsmas
nuo 05 metu 08 UTC su 05 metu 09 UTC
Su prošvaistėmis ne aukštis 1000 ft
Išsisklaidę debesys ne aukštis 3000 ft, Liūtiniai kamuoliniai debesys.
perkūnija, lietus

TAF: ZSPD 040927Z 0412/0512 12004MPS 6000 BKN015 TX26/0506Z TN21/0421Z BECMG 0508/0509 TSRA BKN010 SCT030CB

Orai ataskaitas ir orų prognozės (METAR, TAF).

turimą stotys yra geltonos ir raudonos taškus žemėlapyje.

Perkelti pele per norėdami pamatyti stoties vardą.

Tada spustelėkite, norėdami matyti oro stebėjimo ir prognozės.

Norėdami pakeisti žemėlapį: spustelėkite ant žalios mygtukų su juodo kryžiaus žemyn,; žalią mygtuką su brūkšneliu, jei norite nutolinti; arba žalių rodyklių gretimoms žemėlapius.


METAR-TAF: